sensor_id;sensor_type;location;lat;lon;timestamp;temperature;humidity
54960;DHT22;40860;51.710;8.736;2023-04-24T00:02:45;11.90;93.20
54960;DHT22;40860;51.710;8.736;2023-04-24T00:06:49;11.80;93.20
54960;DHT22;40860;51.710;8.736;2023-04-24T00:10:55;11.80;93.30
54960;DHT22;40860;51.710;8.736;2023-04-24T00:14:59;11.70;93.20
54960;DHT22;40860;51.710;8.736;2023-04-24T00:19:02;11.70;93.30
54960;DHT22;40860;51.710;8.736;2023-04-24T00:23:07;11.70;93.20
54960;DHT22;40860;51.710;8.736;2023-04-24T00:27:10;11.60;93.30
54960;DHT22;40860;51.710;8.736;2023-04-24T00:31:14;11.50;93.40
54960;DHT22;40860;51.710;8.736;2023-04-24T00:35:17;11.50;93.50
54960;DHT22;40860;51.710;8.736;2023-04-24T00:39:21;11.40;93.50
54960;DHT22;40860;51.710;8.736;2023-04-24T00:43:25;11.40;93.60
54960;DHT22;40860;51.710;8.736;2023-04-24T00:47:29;11.40;93.70
54960;DHT22;40860;51.710;8.736;2023-04-24T00:51:33;11.30;93.70
54960;DHT22;40860;51.710;8.736;2023-04-24T00:55:36;11.30;93.80
54960;DHT22;40860;51.710;8.736;2023-04-24T00:59:39;11.30;93.70
54960;DHT22;40860;51.710;8.736;2023-04-24T01:03:45;11.20;93.70
54960;DHT22;40860;51.710;8.736;2023-04-24T01:07:48;11.20;93.70
54960;DHT22;40860;51.710;8.736;2023-04-24T01:11:51;11.20;93.70
54960;DHT22;40860;51.710;8.736;2023-04-24T01:15:53;11.30;93.60
54960;DHT22;40860;51.710;8.736;2023-04-24T01:19:58;11.30;93.40
54960;DHT22;40860;51.710;8.736;2023-04-24T01:24:03;11.40;93.40
54960;DHT22;40860;51.710;8.736;2023-04-24T01:28:06;11.40;93.50
54960;DHT22;40860;51.710;8.736;2023-04-24T01:32:09;11.40;93.20
54960;DHT22;40860;51.710;8.736;2023-04-24T01:36:13;11.40;93.10
54960;DHT22;40860;51.710;8.736;2023-04-24T01:40:17;11.50;93.00
54960;DHT22;40860;51.710;8.736;2023-04-24T01:44:21;11.40;93.00
54960;DHT22;40860;51.710;8.736;2023-04-24T01:48:24;11.40;92.90
54960;DHT22;40860;51.710;8.736;2023-04-24T01:52:27;11.40;92.90
54960;DHT22;40860;51.710;8.736;2023-04-24T01:56:35;11.40;92.60
54960;DHT22;40860;51.710;8.736;2023-04-24T02:00:39;11.30;92.70
54960;DHT22;40860;51.710;8.736;2023-04-24T02:04:42;11.30;92.80
54960;DHT22;40860;51.710;8.736;2023-04-24T02:08:44;11.30;92.70
54960;DHT22;40860;51.710;8.736;2023-04-24T02:12:49;11.30;92.70
54960;DHT22;40860;51.710;8.736;2023-04-24T02:16:51;11.30;92.70
54960;DHT22;40860;51.710;8.736;2023-04-24T02:20:55;11.30;92.60
54960;DHT22;40860;51.710;8.736;2023-04-24T02:24:57;11.30;92.60
54960;DHT22;40860;51.710;8.736;2023-04-24T02:29:02;11.30;92.60
54960;DHT22;40860;51.710;8.736;2023-04-24T02:33:05;11.20;92.50
54960;DHT22;40860;51.710;8.736;2023-04-24T02:37:08;11.20;92.70
54960;DHT22;40860;51.710;8.736;2023-04-24T02:41:11;11.10;92.90
54960;DHT22;40860;51.710;8.736;2023-04-24T02:45:15;11.10;93.10
54960;DHT22;40860;51.710;8.736;2023-04-24T02:49:18;11.10;93.10
54960;DHT22;40860;51.710;8.736;2023-04-24T02:53:21;11.20;93.30
54960;DHT22;40860;51.710;8.736;2023-04-24T02:57:25;11.10;93.40
54960;DHT22;40860;51.710;8.736;2023-04-24T03:01:29;11.20;93.50
54960;DHT22;40860;51.710;8.736;2023-04-24T03:05:32;11.10;93.50
54960;DHT22;40860;51.710;8.736;2023-04-24T03:09:35;11.10;93.80
54960;DHT22;40860;51.710;8.736;2023-04-24T03:13:39;11.10;93.90
54960;DHT22;40860;51.710;8.736;2023-04-24T03:17:43;11.10;94.10
54960;DHT22;40860;51.710;8.736;2023-04-24T03:21:46;11.20;94.10
54960;DHT22;40860;51.710;8.736;2023-04-24T03:25:49;11.20;94.10
54960;DHT22;40860;51.710;8.736;2023-04-24T03:29:54;11.20;94.20
54960;DHT22;40860;51.710;8.736;2023-04-24T03:34:15;11.20;94.20
54960;DHT22;40860;51.710;8.736;2023-04-24T03:38:18;11.30;94.30
54960;DHT22;40860;51.710;8.736;2023-04-24T03:42:34;11.30;94.30
54960;DHT22;40860;51.710;8.736;2023-04-24T03:46:40;11.30;94.30
54960;DHT22;40860;51.710;8.736;2023-04-24T03:50:45;11.30;94.50
54960;DHT22;40860;51.710;8.736;2023-04-24T03:54:48;11.30;94.60
54960;DHT22;40860;51.710;8.736;2023-04-24T03:58:56;11.40;94.70
54960;DHT22;40860;51.710;8.736;2023-04-24T04:03:01;11.40;94.70
54960;DHT22;40860;51.710;8.736;2023-04-24T04:07:05;11.40;94.80
54960;DHT22;40860;51.710;8.736;2023-04-24T04:11:10;11.40;95.00
54960;DHT22;40860;51.710;8.736;2023-04-24T04:15:12;11.40;95.60
54960;DHT22;40860;51.710;8.736;2023-04-24T04:19:16;11.30;96.50
54960;DHT22;40860;51.710;8.736;2023-04-24T04:23:20;11.10;96.40
54960;DHT22;40860;51.710;8.736;2023-04-24T04:27:39;10.90;97.50
54960;DHT22;40860;51.710;8.736;2023-04-24T04:31:47;10.70;98.20
54960;DHT22;40860;51.710;8.736;2023-04-24T04:35:50;10.50;99.40
54960;DHT22;40860;51.710;8.736;2023-04-24T04:39:56;10.50;99.30
54960;DHT22;40860;51.710;8.736;2023-04-24T04:44:01;10.40;99.30
54960;DHT22;40860;51.710;8.736;2023-04-24T04:48:07;10.40;99.10
54960;DHT22;40860;51.710;8.736;2023-04-24T04:52:11;10.40;99.40
54960;DHT22;40860;51.710;8.736;2023-04-24T04:56:16;10.30;99.50
54960;DHT22;40860;51.710;8.736;2023-04-24T05:00:20;10.30;99.60
54960;DHT22;40860;51.710;8.736;2023-04-24T05:04:26;10.30;99.40
54960;DHT22;40860;51.710;8.736;2023-04-24T05:08:29;10.40;99.20
54960;DHT22;40860;51.710;8.736;2023-04-24T05:12:35;10.30;98.40
54960;DHT22;40860;51.710;8.736;2023-04-24T05:16:38;10.30;98.00
54960;DHT22;40860;51.710;8.736;2023-04-24T05:20:44;10.30;97.40
54960;DHT22;40860;51.710;8.736;2023-04-24T05:24:48;10.30;96.80
54960;DHT22;40860;51.710;8.736;2023-04-24T05:29:11;10.20;96.00
54960;DHT22;40860;51.710;8.736;2023-04-24T05:33:14;10.20;95.20
54960;DHT22;40860;51.710;8.736;2023-04-24T05:37:18;10.20;95.20
54960;DHT22;40860;51.710;8.736;2023-04-24T05:41:21;10.20;94.90
54960;DHT22;40860;51.710;8.736;2023-04-24T05:45:25;10.10;95.20
54960;DHT22;40860;51.710;8.736;2023-04-24T05:49:28;10.20;95.20
54960;DHT22;40860;51.710;8.736;2023-04-24T05:53:31;10.50;94.90
54960;DHT22;40860;51.710;8.736;2023-04-24T05:57:34;11.10;95.40
54960;DHT22;40860;51.710;8.736;2023-04-24T06:01:40;13.10;92.30
54960;DHT22;40860;51.710;8.736;2023-04-24T06:05:49;15.90;84.60
54960;DHT22;40860;51.710;8.736;2023-04-24T06:09:52;17.50;74.90
54960;DHT22;40860;51.710;8.736;2023-04-24T06:13:56;18.50;68.00
54960;DHT22;40860;51.710;8.736;2023-04-24T06:18:23;18.90;63.70
54960;DHT22;40860;51.710;8.736;2023-04-24T06:22:26;19.10;59.00
54960;DHT22;40860;51.710;8.736;2023-04-24T06:26:29;19.00;58.90
54960;DHT22;40860;51.710;8.736;2023-04-24T06:30:31;17.80;59.60
54960;DHT22;40860;51.710;8.736;2023-04-24T06:34:36;16.40;64.70
54960;DHT22;40860;51.710;8.736;2023-04-24T06:38:39;14.80;69.10
54960;DHT22;40860;51.710;8.736;2023-04-24T06:42:42;13.50;74.40
54960;DHT22;40860;51.710;8.736;2023-04-24T06:46:44;12.70;79.00
54960;DHT22;40860;51.710;8.736;2023-04-24T06:50:49;12.20;82.10
54960;DHT22;40860;51.710;8.736;2023-04-24T06:54:52;11.90;82.70
54960;DHT22;40860;51.710;8.736;2023-04-24T06:58:54;11.70;84.40
54960;DHT22;40860;51.710;8.736;2023-04-24T07:02:57;11.60;86.10
54960;DHT22;40860;51.710;8.736;2023-04-24T07:07:02;11.50;86.00
54960;DHT22;40860;51.710;8.736;2023-04-24T07:11:06;11.50;86.60
54960;DHT22;40860;51.710;8.736;2023-04-24T07:15:09;11.30;86.90
54960;DHT22;40860;51.710;8.736;2023-04-24T07:19:13;11.20;86.90
54960;DHT22;40860;51.710;8.736;2023-04-24T07:23:18;11.10;87.60
54960;DHT22;40860;51.710;8.736;2023-04-24T07:27:20;11.10;88.00
54960;DHT22;40860;51.710;8.736;2023-04-24T07:31:23;11.20;88.20
54960;DHT22;40860;51.710;8.736;2023-04-24T07:35:26;11.40;88.40
54960;DHT22;40860;51.710;8.736;2023-04-24T07:39:31;11.40;87.40
54960;DHT22;40860;51.710;8.736;2023-04-24T07:43:33;11.40;87.10
54960;DHT22;40860;51.710;8.736;2023-04-24T07:47:37;11.40;86.70
54960;DHT22;40860;51.710;8.736;2023-04-24T07:51:41;11.50;86.40
54960;DHT22;40860;51.710;8.736;2023-04-24T07:55:46;11.60;86.90
54960;DHT22;40860;51.710;8.736;2023-04-24T07:59:49;11.70;86.40
54960;DHT22;40860;51.710;8.736;2023-04-24T08:03:52;11.70;85.80
54960;DHT22;40860;51.710;8.736;2023-04-24T08:07:55;11.60;86.00
54960;DHT22;40860;51.710;8.736;2023-04-24T08:11:59;11.60;86.50
54960;DHT22;40860;51.710;8.736;2023-04-24T08:16:02;11.50;87.20
54960;DHT22;40860;51.710;8.736;2023-04-24T08:20:07;11.50;87.40
54960;DHT22;40860;51.710;8.736;2023-04-24T08:24:14;11.60;87.20
54960;DHT22;40860;51.710;8.736;2023-04-24T08:28:19;11.60;87.00
54960;DHT22;40860;51.710;8.736;2023-04-24T08:32:22;11.50;87.30
54960;DHT22;40860;51.710;8.736;2023-04-24T08:36:24;11.50;86.50
54960;DHT22;40860;51.710;8.736;2023-04-24T08:40:44;11.50;86.80
54960;DHT22;40860;51.710;8.736;2023-04-24T08:44:49;11.50;87.00
54960;DHT22;40860;51.710;8.736;2023-04-24T08:48:52;11.50;86.90
54960;DHT22;40860;51.710;8.736;2023-04-24T08:52:56;11.50;87.20
54960;DHT22;40860;51.710;8.736;2023-04-24T08:57:01;11.60;86.90
54960;DHT22;40860;51.710;8.736;2023-04-24T09:01:06;12.00;86.40
54960;DHT22;40860;51.710;8.736;2023-04-24T09:05:13;13.00;85.50
54960;DHT22;40860;51.710;8.736;2023-04-24T09:09:32;13.40;81.60
54960;DHT22;40860;51.710;8.736;2023-04-24T09:13:36;13.10;80.00
54960;DHT22;40860;51.710;8.736;2023-04-24T09:17:44;12.60;80.70
54960;DHT22;40860;51.710;8.736;2023-04-24T09:21:47;12.20;82.60
54960;DHT22;40860;51.710;8.736;2023-04-24T09:25:54;12.20;83.90
54960;DHT22;40860;51.710;8.736;2023-04-24T09:30:02;12.10;84.00
54960;DHT22;40860;51.710;8.736;2023-04-24T09:34:09;12.10;84.30
54960;DHT22;40860;51.710;8.736;2023-04-24T09:38:14;12.10;84.10
54960;DHT22;40860;51.710;8.736;2023-04-24T09:42:17;12.10;83.40
54960;DHT22;40860;51.710;8.736;2023-04-24T09:46:20;12.00;83.40
54960;DHT22;40860;51.710;8.736;2023-04-24T09:50:25;11.80;85.20
54960;DHT22;40860;51.710;8.736;2023-04-24T09:54:28;11.70;87.00
54960;DHT22;40860;51.710;8.736;2023-04-24T09:58:31;11.70;89.00
54960;DHT22;40860;51.710;8.736;2023-04-24T10:02:34;11.70;90.10
54960;DHT22;40860;51.710;8.736;2023-04-24T10:06:42;11.60;90.10
54960;DHT22;40860;51.710;8.736;2023-04-24T10:10:46;11.70;90.90
54960;DHT22;40860;51.710;8.736;2023-04-24T10:14:50;11.90;91.50
54960;DHT22;40860;51.710;8.736;2023-04-24T10:18:54;11.90;90.70
54960;DHT22;40860;51.710;8.736;2023-04-24T10:22:59;11.60;90.60
54960;DHT22;40860;51.710;8.736;2023-04-24T10:27:03;11.20;92.30
54960;DHT22;40860;51.710;8.736;2023-04-24T10:31:07;11.00;93.50
54960;DHT22;40860;51.710;8.736;2023-04-24T10:39:38;11.70;93.50
54960;DHT22;40860;51.710;8.736;2023-04-24T10:43:42;11.70;91.20
54960;DHT22;40860;51.710;8.736;2023-04-24T10:47:52;11.30;90.10
54960;DHT22;40860;51.710;8.736;2023-04-24T10:52:02;11.20;90.50
54960;DHT22;40860;51.710;8.736;2023-04-24T10:56:18;11.10;90.20
54960;DHT22;40860;51.710;8.736;2023-04-24T11:00:22;10.90;90.70
54960;DHT22;40860;51.710;8.736;2023-04-24T11:04:30;10.70;91.50
54960;DHT22;40860;51.710;8.736;2023-04-24T11:08:48;10.50;91.80
54960;DHT22;40860;51.710;8.736;2023-04-24T11:12:53;10.30;91.80
54960;DHT22;40860;51.710;8.736;2023-04-24T11:16:56;10.30;92.00
54960;DHT22;40860;51.710;8.736;2023-04-24T11:20:59;10.20;92.30
54960;DHT22;40860;51.710;8.736;2023-04-24T11:25:12;10.20;93.30
54960;DHT22;40860;51.710;8.736;2023-04-24T11:29:22;10.20;95.00
54960;DHT22;40860;51.710;8.736;2023-04-24T11:33:42;10.20;96.50
54960;DHT22;40860;51.710;8.736;2023-04-24T11:37:46;10.20;97.40
54960;DHT22;40860;51.710;8.736;2023-04-24T11:42:10;10.00;98.70
54960;DHT22;40860;51.710;8.736;2023-04-24T11:46:20;9.90;99.40
54960;DHT22;40860;51.710;8.736;2023-04-24T11:50:25;9.70;99.90
54960;DHT22;40860;51.710;8.736;2023-04-24T11:54:29;9.80;99.90
54960;DHT22;40860;51.710;8.736;2023-04-24T11:58:34;9.70;99.90
54960;DHT22;40860;51.710;8.736;2023-04-24T12:02:39;9.70;99.90
54960;DHT22;40860;51.710;8.736;2023-04-24T12:07:00;9.70;99.90
54960;DHT22;40860;51.710;8.736;2023-04-24T12:11:05;9.60;99.90
54960;DHT22;40860;51.710;8.736;2023-04-24T12:15:09;9.50;99.90
54960;DHT22;40860;51.710;8.736;2023-04-24T12:19:20;9.40;99.90
54960;DHT22;40860;51.710;8.736;2023-04-24T12:23:35;9.30;99.90
54960;DHT22;40860;51.710;8.736;2023-04-24T12:27:38;9.30;99.90
54960;DHT22;40860;51.710;8.736;2023-04-24T12:31:41;9.20;99.90
54960;DHT22;40860;51.710;8.736;2023-04-24T12:35:51;9.20;99.90
54960;DHT22;40860;51.710;8.736;2023-04-24T12:39:59;9.10;99.90
54960;DHT22;40860;51.710;8.736;2023-04-24T12:44:02;9.20;99.90
54960;DHT22;40860;51.710;8.736;2023-04-24T12:48:05;9.20;99.90
54960;DHT22;40860;51.710;8.736;2023-04-24T12:52:09;9.10;99.90
54960;DHT22;40860;51.710;8.736;2023-04-24T12:56:12;9.00;99.90
54960;DHT22;40860;51.710;8.736;2023-04-24T13:00:15;9.00;99.90
54960;DHT22;40860;51.710;8.736;2023-04-24T13:04:21;9.00;99.90
54960;DHT22;40860;51.710;8.736;2023-04-24T13:08:25;8.90;99.90
54960;DHT22;40860;51.710;8.736;2023-04-24T13:12:28;9.00;99.90
54960;DHT22;40860;51.710;8.736;2023-04-24T13:16:31;9.00;99.90
54960;DHT22;40860;51.710;8.736;2023-04-24T13:20:34;9.00;99.90
54960;DHT22;40860;51.710;8.736;2023-04-24T13:24:39;9.00;99.90
54960;DHT22;40860;51.710;8.736;2023-04-24T13:28:43;9.00;99.90
54960;DHT22;40860;51.710;8.736;2023-04-24T13:32:46;9.00;99.90
54960;DHT22;40860;51.710;8.736;2023-04-24T13:36:49;9.00;99.90
54960;DHT22;40860;51.710;8.736;2023-04-24T13:40:55;9.00;99.90
54960;DHT22;40860;51.710;8.736;2023-04-24T13:44:58;9.00;99.90
54960;DHT22;40860;51.710;8.736;2023-04-24T13:49:15;9.00;99.90
54960;DHT22;40860;51.710;8.736;2023-04-24T13:53:18;9.10;99.90
54960;DHT22;40860;51.710;8.736;2023-04-24T13:57:22;9.10;99.90
54960;DHT22;40860;51.710;8.736;2023-04-24T14:01:25;9.10;99.90
54960;DHT22;40860;51.710;8.736;2023-04-24T14:05:29;9.10;99.90
54960;DHT22;40860;51.710;8.736;2023-04-24T14:09:32;9.10;99.90
54960;DHT22;40860;51.710;8.736;2023-04-24T14:13:36;9.10;99.90
54960;DHT22;40860;51.710;8.736;2023-04-24T14:17:39;9.00;99.90
54960;DHT22;40860;51.710;8.736;2023-04-24T14:21:42;9.00;99.90
54960;DHT22;40860;51.710;8.736;2023-04-24T14:25:45;9.00;99.90
54960;DHT22;40860;51.710;8.736;2023-04-24T14:29:53;9.00;99.90
54960;DHT22;40860;51.710;8.736;2023-04-24T14:33:56;9.10;99.90
54960;DHT22;40860;51.710;8.736;2023-04-24T14:38:00;9.10;99.90
54960;DHT22;40860;51.710;8.736;2023-04-24T14:42:03;9.10;99.90
54960;DHT22;40860;51.710;8.736;2023-04-24T14:46:07;9.20;99.90
54960;DHT22;40860;51.710;8.736;2023-04-24T14:50:10;9.20;99.90
54960;DHT22;40860;51.710;8.736;2023-04-24T14:54:14;9.20;99.90
54960;DHT22;40860;51.710;8.736;2023-04-24T14:58:17;9.30;99.90
54960;DHT22;40860;51.710;8.736;2023-04-24T15:02:22;9.30;99.90
54960;DHT22;40860;51.710;8.736;2023-04-24T15:06:25;9.30;99.90
54960;DHT22;40860;51.710;8.736;2023-04-24T15:10:28;9.30;99.90
54960;DHT22;40860;51.710;8.736;2023-04-24T15:14:31;9.40;99.90
54960;DHT22;40860;51.710;8.736;2023-04-24T15:18:36;9.30;99.90
54960;DHT22;40860;51.710;8.736;2023-04-24T15:22:39;9.30;99.90
54960;DHT22;40860;51.710;8.736;2023-04-24T15:26:42;9.30;99.90
54960;DHT22;40860;51.710;8.736;2023-04-24T15:30:45;9.30;99.90
54960;DHT22;40860;51.710;8.736;2023-04-24T15:34:50;9.30;99.90
54960;DHT22;40860;51.710;8.736;2023-04-24T15:39:08;9.30;99.90
54960;DHT22;40860;51.710;8.736;2023-04-24T15:43:11;9.40;99.90
54960;DHT22;40860;51.710;8.736;2023-04-24T15:47:15;9.40;99.90
54960;DHT22;40860;51.710;8.736;2023-04-24T15:51:19;9.30;99.90
54960;DHT22;40860;51.710;8.736;2023-04-24T15:55:22;9.30;99.90
54960;DHT22;40860;51.710;8.736;2023-04-24T15:59:25;9.30;99.90
54960;DHT22;40860;51.710;8.736;2023-04-24T16:03:30;9.20;99.90
54960;DHT22;40860;51.710;8.736;2023-04-24T16:07:36;9.10;99.90
54960;DHT22;40860;51.710;8.736;2023-04-24T16:11:40;9.00;99.90
54960;DHT22;40860;51.710;8.736;2023-04-24T16:15:44;9.00;99.90
54960;DHT22;40860;51.710;8.736;2023-04-24T16:19:49;9.00;99.90
54960;DHT22;40860;51.710;8.736;2023-04-24T16:23:54;9.00;99.90
54960;DHT22;40860;51.710;8.736;2023-04-24T16:27:57;9.10;99.90
54960;DHT22;40860;51.710;8.736;2023-04-24T16:32:03;9.10;99.90
54960;DHT22;40860;51.710;8.736;2023-04-24T16:36:06;9.00;99.90
54960;DHT22;40860;51.710;8.736;2023-04-24T16:40:11;9.00;99.90
54960;DHT22;40860;51.710;8.736;2023-04-24T16:44:14;8.90;99.90
54960;DHT22;40860;51.710;8.736;2023-04-24T16:48:17;8.90;99.90
54960;DHT22;40860;51.710;8.736;2023-04-24T16:52:22;9.00;99.90
54960;DHT22;40860;51.710;8.736;2023-04-24T16:56:27;9.00;99.90
54960;DHT22;40860;51.710;8.736;2023-04-24T17:00:30;9.10;99.90
54960;DHT22;40860;51.710;8.736;2023-04-24T17:04:39;9.10;99.90
54960;DHT22;40860;51.710;8.736;2023-04-24T17:08:42;9.10;99.90
54960;DHT22;40860;51.710;8.736;2023-04-24T17:12:46;9.10;99.90
54960;DHT22;40860;51.710;8.736;2023-04-24T17:17:16;9.10;99.90
54960;DHT22;40860;51.710;8.736;2023-04-24T17:21:21;9.10;99.90
54960;DHT22;40860;51.710;8.736;2023-04-24T17:25:24;9.00;99.90
54960;DHT22;40860;51.710;8.736;2023-04-24T17:29:32;9.00;99.90
54960;DHT22;40860;51.710;8.736;2023-04-24T17:33:35;9.00;99.90
54960;DHT22;40860;51.710;8.736;2023-04-24T17:37:38;9.00;99.90
54960;DHT22;40860;51.710;8.736;2023-04-24T17:41:41;9.00;99.90
54960;DHT22;40860;51.710;8.736;2023-04-24T17:45:46;9.00;99.90
54960;DHT22;40860;51.710;8.736;2023-04-24T17:49:49;8.90;99.70
54960;DHT22;40860;51.710;8.736;2023-04-24T17:53:52;8.80;99.30
54960;DHT22;40860;51.710;8.736;2023-04-24T17:57:55;8.70;98.60
54960;DHT22;40860;51.710;8.736;2023-04-24T18:02:02;8.60;98.40
54960;DHT22;40860;51.710;8.736;2023-04-24T18:06:05;8.60;98.50
54960;DHT22;40860;51.710;8.736;2023-04-24T18:10:17;8.50;98.80
54960;DHT22;40860;51.710;8.736;2023-04-24T18:14:20;8.50;99.10
54960;DHT22;40860;51.710;8.736;2023-04-24T18:18:25;8.50;99.40
54960;DHT22;40860;51.710;8.736;2023-04-24T18:22:28;8.50;99.60
54960;DHT22;40860;51.710;8.736;2023-04-24T18:26:31;8.50;99.80
54960;DHT22;40860;51.710;8.736;2023-04-24T18:30:35;8.40;99.60
54960;DHT22;40860;51.710;8.736;2023-04-24T18:34:39;8.50;99.80
54960;DHT22;40860;51.710;8.736;2023-04-24T18:38:42;8.40;99.90
54960;DHT22;40860;51.710;8.736;2023-04-24T18:42:45;8.40;99.90
54960;DHT22;40860;51.710;8.736;2023-04-24T18:46:48;8.40;99.90
54960;DHT22;40860;51.710;8.736;2023-04-24T18:50:52;8.40;99.90
54960;DHT22;40860;51.710;8.736;2023-04-24T18:54:55;8.40;99.90
54960;DHT22;40860;51.710;8.736;2023-04-24T18:58:58;8.40;99.90
54960;DHT22;40860;51.710;8.736;2023-04-24T19:03:14;8.40;99.90
54960;DHT22;40860;51.710;8.736;2023-04-24T19:07:19;8.40;99.90
54960;DHT22;40860;51.710;8.736;2023-04-24T19:11:22;8.40;99.90
54960;DHT22;40860;51.710;8.736;2023-04-24T19:15:25;8.40;99.90
54960;DHT22;40860;51.710;8.736;2023-04-24T19:19:30;8.40;99.90
54960;DHT22;40860;51.710;8.736;2023-04-24T19:23:34;8.40;99.90
54960;DHT22;40860;51.710;8.736;2023-04-24T19:27:40;8.40;99.90
54960;DHT22;40860;51.710;8.736;2023-04-24T19:31:43;8.40;99.90
54960;DHT22;40860;51.710;8.736;2023-04-24T19:35:45;8.40;99.90
54960;DHT22;40860;51.710;8.736;2023-04-24T19:39:50;8.30;99.90
54960;DHT22;40860;51.710;8.736;2023-04-24T19:43:53;8.30;99.90
54960;DHT22;40860;51.710;8.736;2023-04-24T19:47:56;8.30;99.80
54960;DHT22;40860;51.710;8.736;2023-04-24T19:52:00;8.20;99.80
54960;DHT22;40860;51.710;8.736;2023-04-24T19:56:04;8.20;99.70
54960;DHT22;40860;51.710;8.736;2023-04-24T20:00:08;8.10;99.30
54960;DHT22;40860;51.710;8.736;2023-04-24T20:04:11;8.00;99.10
54960;DHT22;40860;51.710;8.736;2023-04-24T20:08:15;8.00;99.00
54960;DHT22;40860;51.710;8.736;2023-04-24T20:12:19;7.90;98.80
54960;DHT22;40860;51.710;8.736;2023-04-24T20:16:23;7.80;98.80
54960;DHT22;40860;51.710;8.736;2023-04-24T20:20:26;7.80;98.80
54960;DHT22;40860;51.710;8.736;2023-04-24T20:24:29;7.70;98.70
54960;DHT22;40860;51.710;8.736;2023-04-24T20:28:33;7.70;98.90
54960;DHT22;40860;51.710;8.736;2023-04-24T20:32:36;7.60;99.00
54960;DHT22;40860;51.710;8.736;2023-04-24T20:36:39;7.60;99.20
54960;DHT22;40860;51.710;8.736;2023-04-24T20:40:49;7.50;99.20
54960;DHT22;40860;51.710;8.736;2023-04-24T20:45:00;7.50;99.20
54960;DHT22;40860;51.710;8.736;2023-04-24T20:49:03;7.40;99.20
54960;DHT22;40860;51.710;8.736;2023-04-24T20:53:06;7.40;99.30
54960;DHT22;40860;51.710;8.736;2023-04-24T20:57:09;7.40;99.40
54960;DHT22;40860;51.710;8.736;2023-04-24T21:01:14;7.30;99.50
54960;DHT22;40860;51.710;8.736;2023-04-24T21:05:17;7.30;99.40
54960;DHT22;40860;51.710;8.736;2023-04-24T21:09:20;7.30;99.50
54960;DHT22;40860;51.710;8.736;2023-04-24T21:13:23;7.20;99.60
54960;DHT22;40860;51.710;8.736;2023-04-24T21:17:31;7.20;99.70
54960;DHT22;40860;51.710;8.736;2023-04-24T21:21:34;7.20;99.80
54960;DHT22;40860;51.710;8.736;2023-04-24T21:25:37;7.10;99.80
54960;DHT22;40860;51.710;8.736;2023-04-24T21:29:41;7.00;99.80
54960;DHT22;40860;51.710;8.736;2023-04-24T21:33:45;7.00;99.90
54960;DHT22;40860;51.710;8.736;2023-04-24T21:37:48;6.90;99.90
54960;DHT22;40860;51.710;8.736;2023-04-24T21:41:51;6.90;99.90
54960;DHT22;40860;51.710;8.736;2023-04-24T21:45:54;6.80;99.90
54960;DHT22;40860;51.710;8.736;2023-04-24T21:49:58;6.80;99.90
54960;DHT22;40860;51.710;8.736;2023-04-24T21:54:01;6.80;99.90
54960;DHT22;40860;51.710;8.736;2023-04-24T21:58:04;6.70;99.90
54960;DHT22;40860;51.710;8.736;2023-04-24T22:02:07;6.70;99.90
54960;DHT22;40860;51.710;8.736;2023-04-24T22:06:11;6.70;99.90
54960;DHT22;40860;51.710;8.736;2023-04-24T22:10:15;6.80;99.90
54960;DHT22;40860;51.710;8.736;2023-04-24T22:14:18;6.80;99.90
54960;DHT22;40860;51.710;8.736;2023-04-24T22:18:21;6.80;99.90
54960;DHT22;40860;51.710;8.736;2023-04-24T22:22:42;6.80;99.90
54960;DHT22;40860;51.710;8.736;2023-04-24T22:26:45;6.80;99.90
54960;DHT22;40860;51.710;8.736;2023-04-24T22:30:47;6.80;99.90
54960;DHT22;40860;51.710;8.736;2023-04-24T22:34:53;6.80;99.90
54960;DHT22;40860;51.710;8.736;2023-04-24T22:38:58;6.70;99.90
54960;DHT22;40860;51.710;8.736;2023-04-24T22:43:01;6.70;99.90
54960;DHT22;40860;51.710;8.736;2023-04-24T22:47:04;6.70;99.90
54960;DHT22;40860;51.710;8.736;2023-04-24T22:51:09;6.60;99.90
54960;DHT22;40860;51.710;8.736;2023-04-24T22:55:13;6.60;99.90
54960;DHT22;40860;51.710;8.736;2023-04-24T22:59:16;6.50;99.90
54960;DHT22;40860;51.710;8.736;2023-04-24T23:03:18;6.50;99.90
54960;DHT22;40860;51.710;8.736;2023-04-24T23:07:21;6.40;99.90
54960;DHT22;40860;51.710;8.736;2023-04-24T23:11:25;6.40;99.90
54960;DHT22;40860;51.710;8.736;2023-04-24T23:15:28;6.40;99.90
54960;DHT22;40860;51.710;8.736;2023-04-24T23:19:31;6.30;99.90
54960;DHT22;40860;51.710;8.736;2023-04-24T23:23:35;6.30;99.90
54960;DHT22;40860;51.710;8.736;2023-04-24T23:27:39;6.40;99.90
54960;DHT22;40860;51.710;8.736;2023-04-24T23:31:42;6.40;99.90
54960;DHT22;40860;51.710;8.736;2023-04-24T23:35:44;6.30;99.90
54960;DHT22;40860;51.710;8.736;2023-04-24T23:39:47;6.40;99.90
54960;DHT22;40860;51.710;8.736;2023-04-24T23:43:52;6.40;99.90
54960;DHT22;40860;51.710;8.736;2023-04-24T23:47:55;6.40;99.90
54960;DHT22;40860;51.710;8.736;2023-04-24T23:51:58;6.40;99.90
54960;DHT22;40860;51.710;8.736;2023-04-24T23:56:01;6.50;99.90
